sensor_id;sensor_type;location;lat;lon;timestamp;temperature;humidity
32187;DHT22;18686;53.084;8.872;2022-09-09T00:01:27;13.70;99.90
32187;DHT22;18686;53.084;8.872;2022-09-09T00:04:03;13.80;99.90
32187;DHT22;18686;53.084;8.872;2022-09-09T00:06:43;13.80;99.90
32187;DHT22;18686;53.084;8.872;2022-09-09T00:09:16;13.80;99.90
32187;DHT22;18686;53.084;8.872;2022-09-09T00:11:48;13.80;99.90
32187;DHT22;18686;53.084;8.872;2022-09-09T00:14:25;13.80;99.90
32187;DHT22;18686;53.084;8.872;2022-09-09T00:16:57;13.80;99.90
32187;DHT22;18686;53.084;8.872;2022-09-09T00:19:33;13.90;99.90
32187;DHT22;18686;53.084;8.872;2022-09-09T00:22:14;13.90;99.90
32187;DHT22;18686;53.084;8.872;2022-09-09T00:24:45;13.90;99.90
32187;DHT22;18686;53.084;8.872;2022-09-09T00:27:19;13.90;99.90
32187;DHT22;18686;53.084;8.872;2022-09-09T00:29:53;13.90;99.90
32187;DHT22;18686;53.084;8.872;2022-09-09T00:32:24;14.00;99.90
32187;DHT22;18686;53.084;8.872;2022-09-09T00:35:00;14.00;99.90
32187;DHT22;18686;53.084;8.872;2022-09-09T00:37:29;14.10;99.90
32187;DHT22;18686;53.084;8.872;2022-09-09T00:40:05;14.10;99.90
32187;DHT22;18686;53.084;8.872;2022-09-09T00:42:42;14.10;99.90
32187;DHT22;18686;53.084;8.872;2022-09-09T00:45:26;14.00;99.90
32187;DHT22;18686;53.084;8.872;2022-09-09T00:48:02;14.00;99.90
32187;DHT22;18686;53.084;8.872;2022-09-09T00:50:46;14.00;99.90
32187;DHT22;18686;53.084;8.872;2022-09-09T00:53:24;13.90;99.90
32187;DHT22;18686;53.084;8.872;2022-09-09T00:56:03;14.00;99.90
32187;DHT22;18686;53.084;8.872;2022-09-09T00:58:35;14.00;99.90
32187;DHT22;18686;53.084;8.872;2022-09-09T01:01:05;13.90;99.90
32187;DHT22;18686;53.084;8.872;2022-09-09T01:03:35;13.90;99.90
32187;DHT22;18686;53.084;8.872;2022-09-09T01:06:15;13.90;99.90
32187;DHT22;18686;53.084;8.872;2022-09-09T01:09:13;13.90;99.90
32187;DHT22;18686;53.084;8.872;2022-09-09T01:11:52;13.80;99.90
32187;DHT22;18686;53.084;8.872;2022-09-09T01:14:35;13.90;99.90
32187;DHT22;18686;53.084;8.872;2022-09-09T01:17:12;13.80;99.90
32187;DHT22;18686;53.084;8.872;2022-09-09T01:19:55;13.80;99.90
32187;DHT22;18686;53.084;8.872;2022-09-09T01:22:34;13.70;99.90
32187;DHT22;18686;53.084;8.872;2022-09-09T01:25:20;13.70;99.90
32187;DHT22;18686;53.084;8.872;2022-09-09T01:28:09;13.70;99.90
32187;DHT22;18686;53.084;8.872;2022-09-09T01:30:40;13.70;99.90
32187;DHT22;18686;53.084;8.872;2022-09-09T01:33:15;13.60;99.90
32187;DHT22;18686;53.084;8.872;2022-09-09T01:35:48;13.60;99.90
32187;DHT22;18686;53.084;8.872;2022-09-09T01:38:20;13.60;99.90
32187;DHT22;18686;53.084;8.872;2022-09-09T01:40:51;13.60;99.90
32187;DHT22;18686;53.084;8.872;2022-09-09T01:43:26;13.60;99.90
32187;DHT22;18686;53.084;8.872;2022-09-09T01:45:56;13.50;99.90
32187;DHT22;18686;53.084;8.872;2022-09-09T01:48:28;13.50;99.90
32187;DHT22;18686;53.084;8.872;2022-09-09T01:51:05;13.50;99.90
32187;DHT22;18686;53.084;8.872;2022-09-09T01:53:33;13.50;99.90
32187;DHT22;18686;53.084;8.872;2022-09-09T01:56:12;13.50;99.90
32187;DHT22;18686;53.084;8.872;2022-09-09T02:01:53;13.40;99.90
32187;DHT22;18686;53.084;8.872;2022-09-09T02:04:34;13.40;99.90
32187;DHT22;18686;53.084;8.872;2022-09-09T02:07:18;13.40;99.90
32187;DHT22;18686;53.084;8.872;2022-09-09T02:09:52;13.30;99.90
32187;DHT22;18686;53.084;8.872;2022-09-09T02:12:24;13.30;99.90
32187;DHT22;18686;53.084;8.872;2022-09-09T02:15:03;13.30;99.90
32187;DHT22;18686;53.084;8.872;2022-09-09T02:17:41;13.30;99.90
32187;DHT22;18686;53.084;8.872;2022-09-09T02:20:15;13.20;99.90
32187;DHT22;18686;53.084;8.872;2022-09-09T02:22:50;13.20;99.90
32187;DHT22;18686;53.084;8.872;2022-09-09T02:25:23;13.20;99.90
32187;DHT22;18686;53.084;8.872;2022-09-09T02:27:55;13.10;99.90
32187;DHT22;18686;53.084;8.872;2022-09-09T02:30:28;13.10;99.90
32187;DHT22;18686;53.084;8.872;2022-09-09T02:32:59;13.10;99.90
32187;DHT22;18686;53.084;8.872;2022-09-09T02:36:02;13.00;99.90
32187;DHT22;18686;53.084;8.872;2022-09-09T02:38:37;13.00;99.90
32187;DHT22;18686;53.084;8.872;2022-09-09T02:41:11;13.00;99.90
32187;DHT22;18686;53.084;8.872;2022-09-09T02:43:40;13.00;99.90
32187;DHT22;18686;53.084;8.872;2022-09-09T02:46:24;13.00;99.90
32187;DHT22;18686;53.084;8.872;2022-09-09T02:49:01;13.00;99.90
32187;DHT22;18686;53.084;8.872;2022-09-09T02:51:44;13.00;99.90
32187;DHT22;18686;53.084;8.872;2022-09-09T02:54:20;13.00;99.90
32187;DHT22;18686;53.084;8.872;2022-09-09T02:56:53;13.00;99.90
32187;DHT22;18686;53.084;8.872;2022-09-09T02:59:28;12.90;99.90
32187;DHT22;18686;53.084;8.872;2022-09-09T03:01:58;12.90;99.90
32187;DHT22;18686;53.084;8.872;2022-09-09T03:04:27;12.90;99.90
32187;DHT22;18686;53.084;8.872;2022-09-09T03:06:56;12.90;99.90
32187;DHT22;18686;53.084;8.872;2022-09-09T03:09:25;12.90;99.90
32187;DHT22;18686;53.084;8.872;2022-09-09T03:11:54;12.90;99.90
32187;DHT22;18686;53.084;8.872;2022-09-09T03:14:23;12.90;99.90
32187;DHT22;18686;53.084;8.872;2022-09-09T03:16:53;12.80;99.90
32187;DHT22;18686;53.084;8.872;2022-09-09T03:19:25;12.90;99.90
32187;DHT22;18686;53.084;8.872;2022-09-09T03:21:53;12.80;99.90
32187;DHT22;18686;53.084;8.872;2022-09-09T03:24:22;12.80;99.90
32187;DHT22;18686;53.084;8.872;2022-09-09T03:26:51;12.90;99.90
32187;DHT22;18686;53.084;8.872;2022-09-09T03:29:20;13.00;99.90
32187;DHT22;18686;53.084;8.872;2022-09-09T03:31:49;13.00;99.90
32187;DHT22;18686;53.084;8.872;2022-09-09T03:34:18;13.10;99.90
32187;DHT22;18686;53.084;8.872;2022-09-09T03:36:47;13.10;99.90
32187;DHT22;18686;53.084;8.872;2022-09-09T03:39:17;13.10;99.90
32187;DHT22;18686;53.084;8.872;2022-09-09T03:41:46;13.20;99.90
32187;DHT22;18686;53.084;8.872;2022-09-09T03:44:15;13.30;99.90
32187;DHT22;18686;53.084;8.872;2022-09-09T03:46:43;13.30;99.90
32187;DHT22;18686;53.084;8.872;2022-09-09T03:49:13;13.30;99.90
32187;DHT22;18686;53.084;8.872;2022-09-09T03:51:42;13.40;99.90
32187;DHT22;18686;53.084;8.872;2022-09-09T03:54:14;13.40;99.90
32187;DHT22;18686;53.084;8.872;2022-09-09T03:56:42;13.50;99.90
32187;DHT22;18686;53.084;8.872;2022-09-09T03:59:12;13.50;99.90
32187;DHT22;18686;53.084;8.872;2022-09-09T04:01:42;13.50;99.90
32187;DHT22;18686;53.084;8.872;2022-09-09T04:04:12;13.50;99.90
32187;DHT22;18686;53.084;8.872;2022-09-09T04:06:40;13.50;99.90
32187;DHT22;18686;53.084;8.872;2022-09-09T04:09:08;13.50;99.90
32187;DHT22;18686;53.084;8.872;2022-09-09T04:11:38;13.50;99.90
32187;DHT22;18686;53.084;8.872;2022-09-09T04:14:07;13.50;99.90
32187;DHT22;18686;53.084;8.872;2022-09-09T04:16:35;13.50;99.90
32187;DHT22;18686;53.084;8.872;2022-09-09T04:19:04;13.60;99.90
32187;DHT22;18686;53.084;8.872;2022-09-09T04:21:34;13.60;99.90
32187;DHT22;18686;53.084;8.872;2022-09-09T04:24:02;13.60;99.90
32187;DHT22;18686;53.084;8.872;2022-09-09T04:26:30;13.60;99.90
32187;DHT22;18686;53.084;8.872;2022-09-09T04:29:00;13.60;99.90
32187;DHT22;18686;53.084;8.872;2022-09-09T04:31:28;13.60;99.90
32187;DHT22;18686;53.084;8.872;2022-09-09T04:33:57;13.60;99.90
32187;DHT22;18686;53.084;8.872;2022-09-09T04:36:25;13.70;99.90
32187;DHT22;18686;53.084;8.872;2022-09-09T04:38:58;13.70;99.90
32187;DHT22;18686;53.084;8.872;2022-09-09T04:41:26;13.80;99.90
32187;DHT22;18686;53.084;8.872;2022-09-09T04:43:54;13.90;99.90
32187;DHT22;18686;53.084;8.872;2022-09-09T04:46:24;13.90;99.90
32187;DHT22;18686;53.084;8.872;2022-09-09T04:48:52;13.90;99.90
32187;DHT22;18686;53.084;8.872;2022-09-09T04:51:25;14.00;99.90
32187;DHT22;18686;53.084;8.872;2022-09-09T04:53:53;14.00;99.90
32187;DHT22;18686;53.084;8.872;2022-09-09T04:56:22;14.00;99.90
32187;DHT22;18686;53.084;8.872;2022-09-09T04:58:56;14.10;99.90
32187;DHT22;18686;53.084;8.872;2022-09-09T05:01:47;14.10;99.90
32187;DHT22;18686;53.084;8.872;2022-09-09T05:04:17;14.00;99.90
32187;DHT22;18686;53.084;8.872;2022-09-09T05:06:46;14.00;99.90
32187;DHT22;18686;53.084;8.872;2022-09-09T05:09:15;13.90;99.90
32187;DHT22;18686;53.084;8.872;2022-09-09T05:11:44;13.80;99.90
32187;DHT22;18686;53.084;8.872;2022-09-09T05:14:23;13.80;99.90
32187;DHT22;18686;53.084;8.872;2022-09-09T05:16:54;13.80;99.90
32187;DHT22;18686;53.084;8.872;2022-09-09T05:19:23;13.70;99.90
32187;DHT22;18686;53.084;8.872;2022-09-09T05:21:53;13.70;99.90
32187;DHT22;18686;53.084;8.872;2022-09-09T05:24:27;13.60;99.90
32187;DHT22;18686;53.084;8.872;2022-09-09T05:26:57;13.60;99.90
32187;DHT22;18686;53.084;8.872;2022-09-09T05:29:28;13.60;99.90
32187;DHT22;18686;53.084;8.872;2022-09-09T05:31:58;13.50;99.90
32187;DHT22;18686;53.084;8.872;2022-09-09T05:34:26;13.50;99.90
32187;DHT22;18686;53.084;8.872;2022-09-09T05:36:55;13.60;99.90
32187;DHT22;18686;53.084;8.872;2022-09-09T05:39:24;13.50;99.90
32187;DHT22;18686;53.084;8.872;2022-09-09T05:41:52;13.50;99.90
32187;DHT22;18686;53.084;8.872;2022-09-09T05:44:21;13.50;99.90
32187;DHT22;18686;53.084;8.872;2022-09-09T05:46:50;13.60;99.90
32187;DHT22;18686;53.084;8.872;2022-09-09T05:49:20;13.60;99.90
32187;DHT22;18686;53.084;8.872;2022-09-09T05:51:48;13.70;99.90
32187;DHT22;18686;53.084;8.872;2022-09-09T05:54:19;13.70;99.90
32187;DHT22;18686;53.084;8.872;2022-09-09T05:56:50;13.70;99.90
32187;DHT22;18686;53.084;8.872;2022-09-09T05:59:19;13.70;99.90
32187;DHT22;18686;53.084;8.872;2022-09-09T06:01:50;13.80;99.90
32187;DHT22;18686;53.084;8.872;2022-09-09T06:04:25;13.80;99.90
32187;DHT22;18686;53.084;8.872;2022-09-09T06:06:54;13.90;99.90
32187;DHT22;18686;53.084;8.872;2022-09-09T06:09:22;13.90;99.90
32187;DHT22;18686;53.084;8.872;2022-09-09T06:11:50;14.00;99.90
32187;DHT22;18686;53.084;8.872;2022-09-09T06:14:22;14.10;99.90
32187;DHT22;18686;53.084;8.872;2022-09-09T06:16:53;14.20;99.90
32187;DHT22;18686;53.084;8.872;2022-09-09T06:19:23;14.20;99.90
32187;DHT22;18686;53.084;8.872;2022-09-09T06:21:57;14.30;99.90
32187;DHT22;18686;53.084;8.872;2022-09-09T06:24:28;14.40;99.90
32187;DHT22;18686;53.084;8.872;2022-09-09T06:26:58;14.40;99.90
32187;DHT22;18686;53.084;8.872;2022-09-09T06:29:31;14.60;99.90
32187;DHT22;18686;53.084;8.872;2022-09-09T06:32:01;14.80;99.90
32187;DHT22;18686;53.084;8.872;2022-09-09T06:34:30;15.00;99.90
32187;DHT22;18686;53.084;8.872;2022-09-09T06:37:00;15.10;99.90
32187;DHT22;18686;53.084;8.872;2022-09-09T06:39:35;15.50;99.90
32187;DHT22;18686;53.084;8.872;2022-09-09T06:42:03;15.80;99.90
32187;DHT22;18686;53.084;8.872;2022-09-09T06:44:54;16.20;99.90
32187;DHT22;18686;53.084;8.872;2022-09-09T06:47:45;16.30;99.90
32187;DHT22;18686;53.084;8.872;2022-09-09T06:50:14;16.70;99.90
32187;DHT22;18686;53.084;8.872;2022-09-09T06:52:47;16.40;99.90
32187;DHT22;18686;53.084;8.872;2022-09-09T06:55:15;16.50;99.90
32187;DHT22;18686;53.084;8.872;2022-09-09T06:57:44;16.70;99.90
32187;DHT22;18686;53.084;8.872;2022-09-09T07:00:17;17.10;99.90
32187;DHT22;18686;53.084;8.872;2022-09-09T07:02:46;17.50;99.90
32187;DHT22;18686;53.084;8.872;2022-09-09T07:05:14;18.30;99.90
32187;DHT22;18686;53.084;8.872;2022-09-09T07:07:46;19.80;99.90
32187;DHT22;18686;53.084;8.872;2022-09-09T07:10:17;20.80;99.90
32187;DHT22;18686;53.084;8.872;2022-09-09T07:12:50;21.40;99.90
32187;DHT22;18686;53.084;8.872;2022-09-09T07:15:19;22.60;99.90
32187;DHT22;18686;53.084;8.872;2022-09-09T07:17:49;24.80;99.90
32187;DHT22;18686;53.084;8.872;2022-09-09T07:20:18;26.60;99.90
32187;DHT22;18686;53.084;8.872;2022-09-09T07:22:48;28.10;81.80
32187;DHT22;18686;53.084;8.872;2022-09-09T07:25:16;29.20;89.60
32187;DHT22;18686;53.084;8.872;2022-09-09T07:27:45;31.20;87.80
32187;DHT22;18686;53.084;8.872;2022-09-09T07:30:14;32.20;59.20
32187;DHT22;18686;53.084;8.872;2022-09-09T07:32:52;33.50;55.00
32187;DHT22;18686;53.084;8.872;2022-09-09T07:35:20;34.20;55.80
32187;DHT22;18686;53.084;8.872;2022-09-09T07:37:49;35.50;50.00
32187;DHT22;18686;53.084;8.872;2022-09-09T07:40:19;34.30;42.40
32187;DHT22;18686;53.084;8.872;2022-09-09T07:42:49;34.30;46.10
32187;DHT22;18686;53.084;8.872;2022-09-09T07:45:17;35.00;49.40
32187;DHT22;18686;53.084;8.872;2022-09-09T07:47:45;35.20;45.00
32187;DHT22;18686;53.084;8.872;2022-09-09T07:50:16;36.10;44.80
32187;DHT22;18686;53.084;8.872;2022-09-09T07:52:44;36.40;40.50
32187;DHT22;18686;53.084;8.872;2022-09-09T07:55:14;36.20;43.50
32187;DHT22;18686;53.084;8.872;2022-09-09T07:57:43;36.60;44.20
32187;DHT22;18686;53.084;8.872;2022-09-09T08:00:12;36.50;42.40
32187;DHT22;18686;53.084;8.872;2022-09-09T08:02:46;36.50;42.60
32187;DHT22;18686;53.084;8.872;2022-09-09T08:05:15;36.60;39.20
32187;DHT22;18686;53.084;8.872;2022-09-09T08:07:45;36.50;39.20
32187;DHT22;18686;53.084;8.872;2022-09-09T08:10:16;37.30;44.00
32187;DHT22;18686;53.084;8.872;2022-09-09T08:12:47;38.60;41.20
32187;DHT22;18686;53.084;8.872;2022-09-09T08:15:36;39.30;41.30
32187;DHT22;18686;53.084;8.872;2022-09-09T08:18:04;40.10;42.10
32187;DHT22;18686;53.084;8.872;2022-09-09T08:20:35;40.30;39.80
32187;DHT22;18686;53.084;8.872;2022-09-09T08:23:04;40.00;40.30
32187;DHT22;18686;53.084;8.872;2022-09-09T08:25:35;38.70;38.80
32187;DHT22;18686;53.084;8.872;2022-09-09T08:28:03;37.20;42.10
32187;DHT22;18686;53.084;8.872;2022-09-09T08:30:31;35.50;39.80
32187;DHT22;18686;53.084;8.872;2022-09-09T08:32:59;33.90;43.40
32187;DHT22;18686;53.084;8.872;2022-09-09T08:35:27;31.60;43.70
32187;DHT22;18686;53.084;8.872;2022-09-09T08:38:00;31.50;48.50
32187;DHT22;18686;53.084;8.872;2022-09-09T08:40:38;31.40;47.20
32187;DHT22;18686;53.084;8.872;2022-09-09T08:43:10;31.70;45.90
32187;DHT22;18686;53.084;8.872;2022-09-09T08:45:48;32.10;46.70
32187;DHT22;18686;53.084;8.872;2022-09-09T08:48:31;33.40;46.70
32187;DHT22;18686;53.084;8.872;2022-09-09T08:51:05;35.10;44.90
32187;DHT22;18686;53.084;8.872;2022-09-09T08:53:40;37.10;39.60
32187;DHT22;18686;53.084;8.872;2022-09-09T08:56:14;37.50;39.70
32187;DHT22;18686;53.084;8.872;2022-09-09T08:58:48;37.60;37.80
32187;DHT22;18686;53.084;8.872;2022-09-09T09:01:35;36.30;35.70
32187;DHT22;18686;53.084;8.872;2022-09-09T09:04:21;34.50;36.30
32187;DHT22;18686;53.084;8.872;2022-09-09T09:06:58;33.20;40.80
32187;DHT22;18686;53.084;8.872;2022-09-09T09:09:39;33.70;38.90
32187;DHT22;18686;53.084;8.872;2022-09-09T09:12:18;31.90;39.80
32187;DHT22;18686;53.084;8.872;2022-09-09T09:14:48;30.20;42.90
32187;DHT22;18686;53.084;8.872;2022-09-09T09:17:19;30.30;45.20
32187;DHT22;18686;53.084;8.872;2022-09-09T09:19:48;30.10;45.50
32187;DHT22;18686;53.084;8.872;2022-09-09T09:22:19;31.20;44.40
32187;DHT22;18686;53.084;8.872;2022-09-09T09:24:55;33.70;43.90
32187;DHT22;18686;53.084;8.872;2022-09-09T09:27:33;34.60;38.50
32187;DHT22;18686;53.084;8.872;2022-09-09T09:30:15;33.30;38.90
32187;DHT22;18686;53.084;8.872;2022-09-09T09:32:56;31.50;41.30
32187;DHT22;18686;53.084;8.872;2022-09-09T09:35:26;30.40;43.00
32187;DHT22;18686;53.084;8.872;2022-09-09T09:37:55;29.50;43.30
32187;DHT22;18686;53.084;8.872;2022-09-09T09:40:51;29.20;46.80
32187;DHT22;18686;53.084;8.872;2022-09-09T09:43:29;31.50;44.70
32187;DHT22;18686;53.084;8.872;2022-09-09T09:46:00;33.10;40.80
32187;DHT22;18686;53.084;8.872;2022-09-09T09:48:56;33.40;40.00
32187;DHT22;18686;53.084;8.872;2022-09-09T09:51:27;34.20;39.20
32187;DHT22;18686;53.084;8.872;2022-09-09T09:54:07;33.90;38.20
32187;DHT22;18686;53.084;8.872;2022-09-09T09:56:38;34.10;36.40
32187;DHT22;18686;53.084;8.872;2022-09-09T09:59:20;33.40;37.40
32187;DHT22;18686;53.084;8.872;2022-09-09T10:02:15;31.40;40.10
32187;DHT22;18686;53.084;8.872;2022-09-09T10:04:45;29.80;47.30
32187;DHT22;18686;53.084;8.872;2022-09-09T10:07:18;28.20;52.70
32187;DHT22;18686;53.084;8.872;2022-09-09T10:09:50;26.60;55.00
32187;DHT22;18686;53.084;8.872;2022-09-09T10:12:29;25.20;59.20
32187;DHT22;18686;53.084;8.872;2022-09-09T10:15:07;24.00;65.40
32187;DHT22;18686;53.084;8.872;2022-09-09T10:17:47;23.70;69.40
32187;DHT22;18686;53.084;8.872;2022-09-09T10:20:32;24.20;69.60
32187;DHT22;18686;53.084;8.872;2022-09-09T10:23:11;24.80;60.80
32187;DHT22;18686;53.084;8.872;2022-09-09T10:26:02;25.00;60.10
32187;DHT22;18686;53.084;8.872;2022-09-09T10:29:24;25.80;59.10
32187;DHT22;18686;53.084;8.872;2022-09-09T10:32:06;27.40;58.00
32187;DHT22;18686;53.084;8.872;2022-09-09T10:34:53;29.30;51.30
32187;DHT22;18686;53.084;8.872;2022-09-09T10:37:35;29.80;47.90
32187;DHT22;18686;53.084;8.872;2022-09-09T10:40:20;31.10;45.20
32187;DHT22;18686;53.084;8.872;2022-09-09T10:42:51;31.10;44.00
32187;DHT22;18686;53.084;8.872;2022-09-09T10:45:29;32.30;43.10
32187;DHT22;18686;53.084;8.872;2022-09-09T10:48:16;33.70;42.90
32187;DHT22;18686;53.084;8.872;2022-09-09T10:50:54;35.00;38.40
32187;DHT22;18686;53.084;8.872;2022-09-09T10:53:39;35.00;38.20
32187;DHT22;18686;53.084;8.872;2022-09-09T10:56:11;33.40;38.40
32187;DHT22;18686;53.084;8.872;2022-09-09T10:58:44;31.80;39.80
32187;DHT22;18686;53.084;8.872;2022-09-09T11:01:20;31.30;41.30
32187;DHT22;18686;53.084;8.872;2022-09-09T11:03:54;31.80;41.70
32187;DHT22;18686;53.084;8.872;2022-09-09T11:06:28;32.70;40.10
32187;DHT22;18686;53.084;8.872;2022-09-09T11:08:58;33.50;39.40
32187;DHT22;18686;53.084;8.872;2022-09-09T11:11:33;34.50;38.00
32187;DHT22;18686;53.084;8.872;2022-09-09T11:14:09;35.50;38.30
32187;DHT22;18686;53.084;8.872;2022-09-09T11:16:41;38.10;36.30
32187;DHT22;18686;53.084;8.872;2022-09-09T11:19:17;38.70;33.10
32187;DHT22;18686;53.084;8.872;2022-09-09T11:21:49;38.70;31.30
32187;DHT22;18686;53.084;8.872;2022-09-09T11:24:21;37.60;31.90
32187;DHT22;18686;53.084;8.872;2022-09-09T11:26:55;36.60;33.30
32187;DHT22;18686;53.084;8.872;2022-09-09T11:33:00;37.00;33.50
32187;DHT22;18686;53.084;8.872;2022-09-09T11:35:41;36.80;34.00
32187;DHT22;18686;53.084;8.872;2022-09-09T11:38:19;36.00;34.70
32187;DHT22;18686;53.084;8.872;2022-09-09T11:40:56;34.70;35.90
32187;DHT22;18686;53.084;8.872;2022-09-09T11:43:31;33.20;37.30
32187;DHT22;18686;53.084;8.872;2022-09-09T11:46:02;32.30;38.50
32187;DHT22;18686;53.084;8.872;2022-09-09T11:48:33;31.30;39.50
32187;DHT22;18686;53.084;8.872;2022-09-09T11:51:05;30.60;41.10
32187;DHT22;18686;53.084;8.872;2022-09-09T11:53:51;29.70;42.20
32187;DHT22;18686;53.084;8.872;2022-09-09T11:56:28;28.80;43.40
32187;DHT22;18686;53.084;8.872;2022-09-09T11:59:00;28.10;45.70
32187;DHT22;18686;53.084;8.872;2022-09-09T12:01:34;27.30;46.90
32187;DHT22;18686;53.084;8.872;2022-09-09T12:04:29;26.10;49.80
32187;DHT22;18686;53.084;8.872;2022-09-09T12:07:02;25.10;52.00
32187;DHT22;18686;53.084;8.872;2022-09-09T12:09:45;24.40;55.80
32187;DHT22;18686;53.084;8.872;2022-09-09T12:12:26;23.30;64.50
32187;DHT22;18686;53.084;8.872;2022-09-09T12:15:01;22.60;67.70
32187;DHT22;18686;53.084;8.872;2022-09-09T12:17:30;21.90;73.10
32187;DHT22;18686;53.084;8.872;2022-09-09T12:20:08;21.40;78.50
32187;DHT22;18686;53.084;8.872;2022-09-09T12:22:56;21.00;90.30
32187;DHT22;18686;53.084;8.872;2022-09-09T12:25:35;20.70;91.90
32187;DHT22;18686;53.084;8.872;2022-09-09T12:28:11;20.30;98.80
32187;DHT22;18686;53.084;8.872;2022-09-09T12:30:46;19.90;99.90
32187;DHT22;18686;53.084;8.872;2022-09-09T12:33:18;19.50;99.90
32187;DHT22;18686;53.084;8.872;2022-09-09T12:35:51;18.90;99.90
32187;DHT22;18686;53.084;8.872;2022-09-09T12:38:26;18.50;99.90
32187;DHT22;18686;53.084;8.872;2022-09-09T12:40:57;18.20;99.90
32187;DHT22;18686;53.084;8.872;2022-09-09T12:43:27;18.00;99.90
32187;DHT22;18686;53.084;8.872;2022-09-09T12:45:57;17.90;99.90
32187;DHT22;18686;53.084;8.872;2022-09-09T12:48:32;17.90;99.90
32187;DHT22;18686;53.084;8.872;2022-09-09T12:51:02;17.90;99.90
32187;DHT22;18686;53.084;8.872;2022-09-09T12:53:34;17.90;99.90
32187;DHT22;18686;53.084;8.872;2022-09-09T12:56:04;17.80;99.90
32187;DHT22;18686;53.084;8.872;2022-09-09T12:58:36;17.70;99.90
32187;DHT22;18686;53.084;8.872;2022-09-09T13:01:06;17.70;99.90
32187;DHT22;18686;53.084;8.872;2022-09-09T13:03:42;17.60;99.90
32187;DHT22;18686;53.084;8.872;2022-09-09T13:06:16;17.50;99.90
32187;DHT22;18686;53.084;8.872;2022-09-09T13:08:48;17.40;99.90
32187;DHT22;18686;53.084;8.872;2022-09-09T13:11:18;17.20;99.90
32187;DHT22;18686;53.084;8.872;2022-09-09T13:13:51;17.10;99.90
32187;DHT22;18686;53.084;8.872;2022-09-09T13:16:22;17.10;99.90
32187;DHT22;18686;53.084;8.872;2022-09-09T13:18:53;17.10;99.90
32187;DHT22;18686;53.084;8.872;2022-09-09T13:21:32;17.10;99.90
32187;DHT22;18686;53.084;8.872;2022-09-09T13:24:04;17.10;99.90
32187;DHT22;18686;53.084;8.872;2022-09-09T13:26:34;17.30;99.90
32187;DHT22;18686;53.084;8.872;2022-09-09T13:29:15;17.60;99.90
32187;DHT22;18686;53.084;8.872;2022-09-09T13:31:45;17.90;99.90
32187;DHT22;18686;53.084;8.872;2022-09-09T13:34:26;18.40;99.90
32187;DHT22;18686;53.084;8.872;2022-09-09T13:36:59;18.80;99.90
32187;DHT22;18686;53.084;8.872;2022-09-09T13:39:29;18.80;99.90
32187;DHT22;18686;53.084;8.872;2022-09-09T13:41:57;18.90;99.90
32187;DHT22;18686;53.084;8.872;2022-09-09T13:44:28;18.90;99.90
32187;DHT22;18686;53.084;8.872;2022-09-09T13:47:02;19.10;99.90
32187;DHT22;18686;53.084;8.872;2022-09-09T13:49:36;19.30;99.90
32187;DHT22;18686;53.084;8.872;2022-09-09T13:52:08;19.40;99.90
32187;DHT22;18686;53.084;8.872;2022-09-09T13:54:38;19.40;99.90
32187;DHT22;18686;53.084;8.872;2022-09-09T13:57:14;19.20;99.90
32187;DHT22;18686;53.084;8.872;2022-09-09T13:59:44;19.10;99.90
32187;DHT22;18686;53.084;8.872;2022-09-09T14:02:31;18.90;99.90
32187;DHT22;18686;53.084;8.872;2022-09-09T14:04:59;18.60;99.90
32187;DHT22;18686;53.084;8.872;2022-09-09T14:07:27;18.50;99.90
32187;DHT22;18686;53.084;8.872;2022-09-09T14:09:57;18.40;99.90
32187;DHT22;18686;53.084;8.872;2022-09-09T14:12:27;18.00;99.90
32187;DHT22;18686;53.084;8.872;2022-09-09T14:14:55;17.90;99.90
32187;DHT22;18686;53.084;8.872;2022-09-09T14:17:23;17.80;99.90
32187;DHT22;18686;53.084;8.872;2022-09-09T14:19:52;17.50;99.90
32187;DHT22;18686;53.084;8.872;2022-09-09T14:22:20;17.40;99.90
32187;DHT22;18686;53.084;8.872;2022-09-09T14:24:48;17.30;99.90
32187;DHT22;18686;53.084;8.872;2022-09-09T14:27:17;17.10;99.90
32187;DHT22;18686;53.084;8.872;2022-09-09T14:29:46;17.00;99.90
32187;DHT22;18686;53.084;8.872;2022-09-09T14:32:14;17.00;99.90
32187;DHT22;18686;53.084;8.872;2022-09-09T14:34:43;16.90;99.90
32187;DHT22;18686;53.084;8.872;2022-09-09T14:37:11;16.90;99.90
32187;DHT22;18686;53.084;8.872;2022-09-09T14:39:39;16.90;99.90
32187;DHT22;18686;53.084;8.872;2022-09-09T14:42:07;16.80;99.90
32187;DHT22;18686;53.084;8.872;2022-09-09T14:44:39;16.80;99.90
32187;DHT22;18686;53.084;8.872;2022-09-09T14:47:07;16.80;99.90
32187;DHT22;18686;53.084;8.872;2022-09-09T14:49:36;16.70;99.90
32187;DHT22;18686;53.084;8.872;2022-09-09T14:52:07;16.70;99.90
32187;DHT22;18686;53.084;8.872;2022-09-09T14:54:36;16.60;99.90
32187;DHT22;18686;53.084;8.872;2022-09-09T14:57:04;16.70;99.90
32187;DHT22;18686;53.084;8.872;2022-09-09T14:59:32;16.60;99.90
32187;DHT22;18686;53.084;8.872;2022-09-09T15:02:02;16.50;99.90
32187;DHT22;18686;53.084;8.872;2022-09-09T15:04:31;16.40;99.90
32187;DHT22;18686;53.084;8.872;2022-09-09T15:06:59;16.40;99.90
32187;DHT22;18686;53.084;8.872;2022-09-09T15:09:27;16.40;99.90
32187;DHT22;18686;53.084;8.872;2022-09-09T15:11:56;16.30;99.90
32187;DHT22;18686;53.084;8.872;2022-09-09T15:14:24;16.30;99.90
32187;DHT22;18686;53.084;8.872;2022-09-09T15:16:52;16.30;99.90
32187;DHT22;18686;53.084;8.872;2022-09-09T15:19:22;16.30;99.90
32187;DHT22;18686;53.084;8.872;2022-09-09T15:21:50;16.30;99.90
32187;DHT22;18686;53.084;8.872;2022-09-09T15:24:18;16.30;99.90
32187;DHT22;18686;53.084;8.872;2022-09-09T15:26:46;16.20;99.90
32187;DHT22;18686;53.084;8.872;2022-09-09T15:29:14;16.30;99.90
32187;DHT22;18686;53.084;8.872;2022-09-09T15:31:43;16.30;99.90
32187;DHT22;18686;53.084;8.872;2022-09-09T15:34:11;16.10;99.90
32187;DHT22;18686;53.084;8.872;2022-09-09T15:36:44;16.20;99.90
32187;DHT22;18686;53.084;8.872;2022-09-09T15:39:14;16.20;99.90
32187;DHT22;18686;53.084;8.872;2022-09-09T15:41:44;16.20;99.90
32187;DHT22;18686;53.084;8.872;2022-09-09T15:44:13;16.20;99.90
32187;DHT22;18686;53.084;8.872;2022-09-09T15:46:42;16.20;99.90
32187;DHT22;18686;53.084;8.872;2022-09-09T15:49:12;16.20;99.90
32187;DHT22;18686;53.084;8.872;2022-09-09T15:51:43;16.20;99.90
32187;DHT22;18686;53.084;8.872;2022-09-09T15:54:13;16.10;99.90
32187;DHT22;18686;53.084;8.872;2022-09-09T15:56:44;16.10;99.90
32187;DHT22;18686;53.084;8.872;2022-09-09T15:59:12;16.10;99.90
32187;DHT22;18686;53.084;8.872;2022-09-09T16:01:41;16.00;99.90
32187;DHT22;18686;53.084;8.872;2022-09-09T16:04:11;16.10;99.90
32187;DHT22;18686;53.084;8.872;2022-09-09T16:06:39;16.10;99.90
32187;DHT22;18686;53.084;8.872;2022-09-09T16:09:08;16.00;99.90
32187;DHT22;18686;53.084;8.872;2022-09-09T16:11:38;16.10;99.90
32187;DHT22;18686;53.084;8.872;2022-09-09T16:14:07;16.10;99.90